sensor_id;sensor_type;location;lat;lon;timestamp;temperature;humidity
52415;DHT22;38340;52.964;6.086;2023-04-01T00:00:17;10.00;99.90
52415;DHT22;38340;52.964;6.086;2023-04-01T00:02:43;10.10;99.90
52415;DHT22;38340;52.964;6.086;2023-04-01T00:05:10;10.00;99.90
52415;DHT22;38340;52.964;6.086;2023-04-01T00:07:36;10.00;99.90
52415;DHT22;38340;52.964;6.086;2023-04-01T00:10:03;10.10;99.90
52415;DHT22;38340;52.964;6.086;2023-04-01T00:12:30;10.00;99.90
52415;DHT22;38340;52.964;6.086;2023-04-01T00:14:55;10.00;99.90
52415;DHT22;38340;52.964;6.086;2023-04-01T00:17:21;10.10;99.90
52415;DHT22;38340;52.964;6.086;2023-04-01T00:19:47;10.00;99.90
52415;DHT22;38340;52.964;6.086;2023-04-01T00:22:13;10.00;99.90
52415;DHT22;38340;52.964;6.086;2023-04-01T00:24:39;10.10;99.90
52415;DHT22;38340;52.964;6.086;2023-04-01T00:27:05;10.00;99.90
52415;DHT22;38340;52.964;6.086;2023-04-01T00:29:31;10.00;99.90
52415;DHT22;38340;52.964;6.086;2023-04-01T00:31:57;10.00;99.90
52415;DHT22;38340;52.964;6.086;2023-04-01T00:34:23;10.00;99.90
52415;DHT22;38340;52.964;6.086;2023-04-01T00:36:50;10.00;99.90
52415;DHT22;38340;52.964;6.086;2023-04-01T00:39:18;10.00;99.90
52415;DHT22;38340;52.964;6.086;2023-04-01T00:41:43;10.00;99.90
52415;DHT22;38340;52.964;6.086;2023-04-01T00:44:36;10.00;99.90
52415;DHT22;38340;52.964;6.086;2023-04-01T00:47:02;9.90;99.90
52415;DHT22;38340;52.964;6.086;2023-04-01T00:49:35;9.90;99.90
52415;DHT22;38340;52.964;6.086;2023-04-01T00:52:03;9.90;99.90
52415;DHT22;38340;52.964;6.086;2023-04-01T00:54:30;9.90;99.90
52415;DHT22;38340;52.964;6.086;2023-04-01T00:57:14;9.90;99.90
52415;DHT22;38340;52.964;6.086;2023-04-01T00:59:43;9.90;99.90
52415;DHT22;38340;52.964;6.086;2023-04-01T01:02:10;9.90;99.90
52415;DHT22;38340;52.964;6.086;2023-04-01T01:04:37;9.90;99.90
52415;DHT22;38340;52.964;6.086;2023-04-01T01:10:18;9.90;99.90
52415;DHT22;38340;52.964;6.086;2023-04-01T01:15:44;9.90;99.90
52415;DHT22;38340;52.964;6.086;2023-04-01T01:35:16;9.90;99.90
52415;DHT22;38340;52.964;6.086;2023-04-01T01:37:46;9.90;99.90
52415;DHT22;38340;52.964;6.086;2023-04-01T01:40:13;9.90;99.90
52415;DHT22;38340;52.964;6.086;2023-04-01T01:42:45;9.90;99.90
52415;DHT22;38340;52.964;6.086;2023-04-01T01:45:13;9.90;99.90
52415;DHT22;38340;52.964;6.086;2023-04-01T01:47:40;9.90;99.90
52415;DHT22;38340;52.964;6.086;2023-04-01T01:50:08;9.90;99.90
52415;DHT22;38340;52.964;6.086;2023-04-01T01:52:34;9.90;99.90
52415;DHT22;38340;52.964;6.086;2023-04-01T01:55:00;9.90;99.90
52415;DHT22;38340;52.964;6.086;2023-04-01T01:57:33;9.90;99.90
52415;DHT22;38340;52.964;6.086;2023-04-01T02:00:08;9.90;99.90
52415;DHT22;38340;52.964;6.086;2023-04-01T02:02:46;9.90;99.90
52415;DHT22;38340;52.964;6.086;2023-04-01T02:05:19;9.90;99.90
52415;DHT22;38340;52.964;6.086;2023-04-01T02:08:06;9.80;99.90
52415;DHT22;38340;52.964;6.086;2023-04-01T02:10:36;9.80;99.90
52415;DHT22;38340;52.964;6.086;2023-04-01T02:13:12;9.80;99.90
52415;DHT22;38340;52.964;6.086;2023-04-01T02:15:42;9.80;99.90
52415;DHT22;38340;52.964;6.086;2023-04-01T02:18:11;9.80;99.90
52415;DHT22;38340;52.964;6.086;2023-04-01T02:20:38;9.80;99.90
52415;DHT22;38340;52.964;6.086;2023-04-01T02:23:06;9.70;99.90
52415;DHT22;38340;52.964;6.086;2023-04-01T02:25:35;9.80;99.90
52415;DHT22;38340;52.964;6.086;2023-04-01T02:28:02;9.80;99.90
52415;DHT22;38340;52.964;6.086;2023-04-01T02:30:29;9.70;99.90
52415;DHT22;38340;52.964;6.086;2023-04-01T02:32:57;9.70;99.90
52415;DHT22;38340;52.964;6.086;2023-04-01T02:35:24;9.70;99.90
52415;DHT22;38340;52.964;6.086;2023-04-01T02:37:52;9.70;99.90
52415;DHT22;38340;52.964;6.086;2023-04-01T02:40:19;9.70;99.90
52415;DHT22;38340;52.964;6.086;2023-04-01T02:42:45;9.60;99.90
52415;DHT22;38340;52.964;6.086;2023-04-01T02:45:12;9.60;99.90
52415;DHT22;38340;52.964;6.086;2023-04-01T02:47:38;9.60;99.90
52415;DHT22;38340;52.964;6.086;2023-04-01T02:50:05;9.50;99.90
52415;DHT22;38340;52.964;6.086;2023-04-01T02:52:31;9.60;99.90
52415;DHT22;38340;52.964;6.086;2023-04-01T02:54:57;9.50;99.90
52415;DHT22;38340;52.964;6.086;2023-04-01T02:57:24;9.50;99.90
52415;DHT22;38340;52.964;6.086;2023-04-01T02:59:50;9.50;99.90
52415;DHT22;38340;52.964;6.086;2023-04-01T03:02:16;9.50;99.90
52415;DHT22;38340;52.964;6.086;2023-04-01T03:04:42;9.50;99.90
52415;DHT22;38340;52.964;6.086;2023-04-01T03:07:08;9.40;99.90
52415;DHT22;38340;52.964;6.086;2023-04-01T03:09:38;9.50;99.90
52415;DHT22;38340;52.964;6.086;2023-04-01T03:12:04;9.40;99.90
52415;DHT22;38340;52.964;6.086;2023-04-01T03:14:29;9.40;99.90
52415;DHT22;38340;52.964;6.086;2023-04-01T03:16:55;9.40;99.90
52415;DHT22;38340;52.964;6.086;2023-04-01T03:19:21;9.50;99.90
52415;DHT22;38340;52.964;6.086;2023-04-01T03:21:46;9.40;99.90
52415;DHT22;38340;52.964;6.086;2023-04-01T03:24:12;9.40;99.90
52415;DHT22;38340;52.964;6.086;2023-04-01T03:26:38;9.40;99.90
52415;DHT22;38340;52.964;6.086;2023-04-01T03:29:03;9.40;99.90
52415;DHT22;38340;52.964;6.086;2023-04-01T03:31:30;9.40;99.90
52415;DHT22;38340;52.964;6.086;2023-04-01T03:33:56;9.40;99.90
52415;DHT22;38340;52.964;6.086;2023-04-01T03:36:22;9.30;99.90
52415;DHT22;38340;52.964;6.086;2023-04-01T03:38:48;9.30;99.90
52415;DHT22;38340;52.964;6.086;2023-04-01T03:41:17;9.30;99.90
52415;DHT22;38340;52.964;6.086;2023-04-01T03:43:43;9.30;99.90
52415;DHT22;38340;52.964;6.086;2023-04-01T03:46:10;9.30;99.90
52415;DHT22;38340;52.964;6.086;2023-04-01T03:48:35;9.30;99.90
52415;DHT22;38340;52.964;6.086;2023-04-01T03:51:01;9.40;99.90
52415;DHT22;38340;52.964;6.086;2023-04-01T03:53:27;9.30;99.90
52415;DHT22;38340;52.964;6.086;2023-04-01T03:55:53;9.30;99.90
52415;DHT22;38340;52.964;6.086;2023-04-01T03:58:19;9.30;99.90
52415;DHT22;38340;52.964;6.086;2023-04-01T04:00:45;9.40;99.90
52415;DHT22;38340;52.964;6.086;2023-04-01T04:03:10;9.30;99.90
52415;DHT22;38340;52.964;6.086;2023-04-01T04:05:36;9.40;99.90
52415;DHT22;38340;52.964;6.086;2023-04-01T04:08:03;9.40;99.90
52415;DHT22;38340;52.964;6.086;2023-04-01T04:10:29;9.40;99.90
52415;DHT22;38340;52.964;6.086;2023-04-01T04:12:55;9.30;99.90
52415;DHT22;38340;52.964;6.086;2023-04-01T04:15:21;9.30;99.90
52415;DHT22;38340;52.964;6.086;2023-04-01T04:17:47;9.40;99.90
52415;DHT22;38340;52.964;6.086;2023-04-01T04:20:13;9.40;99.90
52415;DHT22;38340;52.964;6.086;2023-04-01T04:22:39;9.30;99.90
52415;DHT22;38340;52.964;6.086;2023-04-01T04:25:06;9.40;99.90
52415;DHT22;38340;52.964;6.086;2023-04-01T04:27:32;9.30;99.90
52415;DHT22;38340;52.964;6.086;2023-04-01T04:29:58;9.30;99.90
52415;DHT22;38340;52.964;6.086;2023-04-01T04:32:23;9.40;99.90
52415;DHT22;38340;52.964;6.086;2023-04-01T04:34:49;9.30;99.90
52415;DHT22;38340;52.964;6.086;2023-04-01T04:37:15;9.30;99.90
52415;DHT22;38340;52.964;6.086;2023-04-01T04:39:41;9.30;99.90
52415;DHT22;38340;52.964;6.086;2023-04-01T04:42:06;9.30;99.90
52415;DHT22;38340;52.964;6.086;2023-04-01T04:44:32;9.40;99.90
52415;DHT22;38340;52.964;6.086;2023-04-01T04:46:58;9.40;99.90
52415;DHT22;38340;52.964;6.086;2023-04-01T04:49:23;9.30;99.90
52415;DHT22;38340;52.964;6.086;2023-04-01T04:51:49;9.30;99.90
52415;DHT22;38340;52.964;6.086;2023-04-01T04:54:15;9.40;99.90
52415;DHT22;38340;52.964;6.086;2023-04-01T04:56:41;9.40;99.90
52415;DHT22;38340;52.964;6.086;2023-04-01T04:59:07;9.30;99.90
52415;DHT22;38340;52.964;6.086;2023-04-01T05:01:33;9.30;99.90
52415;DHT22;38340;52.964;6.086;2023-04-01T05:03:59;9.40;99.90
52415;DHT22;38340;52.964;6.086;2023-04-01T05:06:25;9.30;99.90
52415;DHT22;38340;52.964;6.086;2023-04-01T05:08:51;9.40;99.90
52415;DHT22;38340;52.964;6.086;2023-04-01T05:11:18;9.40;99.90
52415;DHT22;38340;52.964;6.086;2023-04-01T05:13:45;9.40;99.90
52415;DHT22;38340;52.964;6.086;2023-04-01T05:16:13;9.40;99.90
52415;DHT22;38340;52.964;6.086;2023-04-01T05:18:39;9.40;99.90
52415;DHT22;38340;52.964;6.086;2023-04-01T05:21:07;9.40;99.90
52415;DHT22;38340;52.964;6.086;2023-04-01T05:23:33;9.50;99.90
52415;DHT22;38340;52.964;6.086;2023-04-01T05:26:03;9.50;99.90
52415;DHT22;38340;52.964;6.086;2023-04-01T05:28:29;9.50;99.90
52415;DHT22;38340;52.964;6.086;2023-04-01T05:30:55;9.50;99.90
52415;DHT22;38340;52.964;6.086;2023-04-01T05:33:23;9.50;99.90
52415;DHT22;38340;52.964;6.086;2023-04-01T05:35:48;9.50;99.90
52415;DHT22;38340;52.964;6.086;2023-04-01T05:38:14;9.50;99.90
52415;DHT22;38340;52.964;6.086;2023-04-01T05:40:40;9.60;99.90
52415;DHT22;38340;52.964;6.086;2023-04-01T05:43:06;9.60;99.90
52415;DHT22;38340;52.964;6.086;2023-04-01T05:45:31;9.60;99.90
52415;DHT22;38340;52.964;6.086;2023-04-01T05:47:58;9.60;99.90
52415;DHT22;38340;52.964;6.086;2023-04-01T05:50:24;9.60;99.90
52415;DHT22;38340;52.964;6.086;2023-04-01T05:52:49;9.60;99.90
52415;DHT22;38340;52.964;6.086;2023-04-01T05:55:15;9.60;99.90
52415;DHT22;38340;52.964;6.086;2023-04-01T05:57:41;9.70;99.90
52415;DHT22;38340;52.964;6.086;2023-04-01T06:00:07;9.70;99.90
52415;DHT22;38340;52.964;6.086;2023-04-01T06:02:33;9.70;99.90
52415;DHT22;38340;52.964;6.086;2023-04-01T06:07:39;9.70;99.90
52415;DHT22;38340;52.964;6.086;2023-04-01T06:10:16;9.80;99.90
52415;DHT22;38340;52.964;6.086;2023-04-01T06:12:57;9.70;99.90
52415;DHT22;38340;52.964;6.086;2023-04-01T06:15:33;9.80;99.90
52415;DHT22;38340;52.964;6.086;2023-04-01T06:21:48;9.80;99.90
52415;DHT22;38340;52.964;6.086;2023-04-01T06:28:05;9.80;99.90
52415;DHT22;38340;52.964;6.086;2023-04-01T06:33:22;9.80;99.90
52415;DHT22;38340;52.964;6.086;2023-04-01T06:44:56;9.90;99.90
52415;DHT22;38340;52.964;6.086;2023-04-01T06:55:43;10.00;99.90
52415;DHT22;38340;52.964;6.086;2023-04-01T06:58:29;10.00;99.90
52415;DHT22;38340;52.964;6.086;2023-04-01T07:01:02;10.00;99.90
52415;DHT22;38340;52.964;6.086;2023-04-01T07:03:40;10.00;99.90
52415;DHT22;38340;52.964;6.086;2023-04-01T07:06:31;10.00;99.90
52415;DHT22;38340;52.964;6.086;2023-04-01T07:08:59;10.00;99.90
52415;DHT22;38340;52.964;6.086;2023-04-01T07:11:31;10.00;99.90
52415;DHT22;38340;52.964;6.086;2023-04-01T07:13:59;10.00;99.90
52415;DHT22;38340;52.964;6.086;2023-04-01T07:16:37;10.00;99.90
52415;DHT22;38340;52.964;6.086;2023-04-01T07:19:12;10.00;99.90
52415;DHT22;38340;52.964;6.086;2023-04-01T07:21:44;10.00;99.90
52415;DHT22;38340;52.964;6.086;2023-04-01T07:24:33;10.00;99.90
52415;DHT22;38340;52.964;6.086;2023-04-01T07:26:59;9.90;99.90
52415;DHT22;38340;52.964;6.086;2023-04-01T07:29:26;9.90;99.90
52415;DHT22;38340;52.964;6.086;2023-04-01T07:34:28;10.00;99.90
52415;DHT22;38340;52.964;6.086;2023-04-01T07:48:15;10.10;99.90
52415;DHT22;38340;52.964;6.086;2023-04-01T07:53:38;10.20;99.90
52415;DHT22;38340;52.964;6.086;2023-04-01T08:04:48;10.30;99.90
52415;DHT22;38340;52.964;6.086;2023-04-01T08:07:30;10.40;99.90
52415;DHT22;38340;52.964;6.086;2023-04-01T08:15:18;10.50;99.90
52415;DHT22;38340;52.964;6.086;2023-04-01T08:23:57;10.60;99.90
52415;DHT22;38340;52.964;6.086;2023-04-01T08:26:39;10.60;99.90
52415;DHT22;38340;52.964;6.086;2023-04-01T08:29:37;10.60;99.90
52415;DHT22;38340;52.964;6.086;2023-04-01T08:32:23;10.70;99.90
52415;DHT22;38340;52.964;6.086;2023-04-01T08:35:02;10.60;99.90
52415;DHT22;38340;52.964;6.086;2023-04-01T08:37:35;10.60;99.90
52415;DHT22;38340;52.964;6.086;2023-04-01T08:48:57;10.70;99.90
52415;DHT22;38340;52.964;6.086;2023-04-01T08:52:11;10.60;99.90
52415;DHT22;38340;52.964;6.086;2023-04-01T09:01:35;10.60;99.90
52415;DHT22;38340;52.964;6.086;2023-04-01T09:04:05;10.50;99.90
52415;DHT22;38340;52.964;6.086;2023-04-01T09:06:44;10.50;99.90
52415;DHT22;38340;52.964;6.086;2023-04-01T09:29:11;10.30;99.90
52415;DHT22;38340;52.964;6.086;2023-04-01T09:32:05;10.30;99.90
52415;DHT22;38340;52.964;6.086;2023-04-01T09:35:05;10.30;99.90
52415;DHT22;38340;52.964;6.086;2023-04-01T09:37:36;10.30;99.90
52415;DHT22;38340;52.964;6.086;2023-04-01T09:40:43;10.40;99.90
52415;DHT22;38340;52.964;6.086;2023-04-01T09:43:47;10.50;99.90
52415;DHT22;38340;52.964;6.086;2023-04-01T09:49:26;10.60;99.90
52415;DHT22;38340;52.964;6.086;2023-04-01T10:25:11;11.20;99.90
52415;DHT22;38340;52.964;6.086;2023-04-01T10:30:34;11.00;99.90
52415;DHT22;38340;52.964;6.086;2023-04-01T10:50:04;10.60;99.90
52415;DHT22;38340;52.964;6.086;2023-04-01T11:01:43;10.50;99.90
52415;DHT22;38340;52.964;6.086;2023-04-01T11:31:21;10.50;99.90
52415;DHT22;38340;52.964;6.086;2023-04-01T11:33:54;10.50;99.90
52415;DHT22;38340;52.964;6.086;2023-04-01T11:42:18;10.50;99.90
52415;DHT22;38340;52.964;6.086;2023-04-01T11:45:12;10.60;99.90
52415;DHT22;38340;52.964;6.086;2023-04-01T11:50:52;10.70;99.90
52415;DHT22;38340;52.964;6.086;2023-04-01T11:56:17;10.60;99.90
52415;DHT22;38340;52.964;6.086;2023-04-01T12:07:11;10.60;99.90
52415;DHT22;38340;52.964;6.086;2023-04-01T12:09:52;10.70;99.90
52415;DHT22;38340;52.964;6.086;2023-04-01T12:20:31;10.70;99.90
52415;DHT22;38340;52.964;6.086;2023-04-01T12:23:09;10.70;99.90
52415;DHT22;38340;52.964;6.086;2023-04-01T12:34:10;10.80;99.90
52415;DHT22;38340;52.964;6.086;2023-04-01T12:36:46;10.90;99.90
52415;DHT22;38340;52.964;6.086;2023-04-01T12:41:58;10.80;99.90
52415;DHT22;38340;52.964;6.086;2023-04-01T12:49:56;10.60;99.90
52415;DHT22;38340;52.964;6.086;2023-04-01T12:55:34;10.60;99.90
52415;DHT22;38340;52.964;6.086;2023-04-01T13:01:42;10.50;99.90
52415;DHT22;38340;52.964;6.086;2023-04-01T13:13:20;10.60;99.90
52415;DHT22;38340;52.964;6.086;2023-04-01T13:18:24;10.60;99.90
52415;DHT22;38340;52.964;6.086;2023-04-01T13:21:13;10.70;99.90
52415;DHT22;38340;52.964;6.086;2023-04-01T13:26:34;10.70;99.90
52415;DHT22;38340;52.964;6.086;2023-04-01T13:29:21;10.70;99.90
52415;DHT22;38340;52.964;6.086;2023-04-01T13:32:25;10.70;99.90
52415;DHT22;38340;52.964;6.086;2023-04-01T13:43:39;10.50;99.90
52415;DHT22;38340;52.964;6.086;2023-04-01T13:54:12;10.30;99.90
52415;DHT22;38340;52.964;6.086;2023-04-01T14:05:36;10.10;99.90
52415;DHT22;38340;52.964;6.086;2023-04-01T14:08:29;10.10;99.90
52415;DHT22;38340;52.964;6.086;2023-04-01T14:17:15;10.00;99.90
52415;DHT22;38340;52.964;6.086;2023-04-01T14:33:52;9.70;99.90
52415;DHT22;38340;52.964;6.086;2023-04-01T14:48:53;9.60;99.90
52415;DHT22;38340;52.964;6.086;2023-04-01T14:51:31;9.50;99.90
52415;DHT22;38340;52.964;6.086;2023-04-01T14:54:13;9.50;99.90
52415;DHT22;38340;52.964;6.086;2023-04-01T14:59:39;9.50;99.90
52415;DHT22;38340;52.964;6.086;2023-04-01T15:21:31;9.30;99.90
52415;DHT22;38340;52.964;6.086;2023-04-01T15:32:18;9.30;99.90
52415;DHT22;38340;52.964;6.086;2023-04-01T15:34:53;9.30;99.90
52415;DHT22;38340;52.964;6.086;2023-04-01T15:38:04;9.30;99.90
52415;DHT22;38340;52.964;6.086;2023-04-01T16:11:28;8.80;99.90
52415;DHT22;38340;52.964;6.086;2023-04-01T16:20:00;8.70;99.90
52415;DHT22;38340;52.964;6.086;2023-04-01T16:22:35;8.70;99.90
52415;DHT22;38340;52.964;6.086;2023-04-01T16:25:41;8.60;99.90
52415;DHT22;38340;52.964;6.086;2023-04-01T16:31:00;8.60;99.90
52415;DHT22;38340;52.964;6.086;2023-04-01T16:33:39;8.50;99.90
52415;DHT22;38340;52.964;6.086;2023-04-01T16:36:28;8.60;99.90
52415;DHT22;38340;52.964;6.086;2023-04-01T16:39:25;8.50;99.90
52415;DHT22;38340;52.964;6.086;2023-04-01T16:42:13;8.50;99.90
52415;DHT22;38340;52.964;6.086;2023-04-01T16:47:49;8.40;99.90
52415;DHT22;38340;52.964;6.086;2023-04-01T16:55:55;8.30;99.90
52415;DHT22;38340;52.964;6.086;2023-04-01T16:58:43;8.20;99.90
52415;DHT22;38340;52.964;6.086;2023-04-01T17:01:19;8.20;99.90
52415;DHT22;38340;52.964;6.086;2023-04-01T17:03:52;8.20;99.90
52415;DHT22;38340;52.964;6.086;2023-04-01T17:06:47;8.10;99.90
52415;DHT22;38340;52.964;6.086;2023-04-01T17:17:51;7.90;99.90
52415;DHT22;38340;52.964;6.086;2023-04-01T17:26:02;7.80;99.90
52415;DHT22;38340;52.964;6.086;2023-04-01T17:34:22;7.80;99.90
52415;DHT22;38340;52.964;6.086;2023-04-01T17:37:05;7.80;99.90
52415;DHT22;38340;52.964;6.086;2023-04-01T17:42:46;7.60;99.90
52415;DHT22;38340;52.964;6.086;2023-04-01T17:51:11;7.50;99.90
52415;DHT22;38340;52.964;6.086;2023-04-01T17:57:00;7.30;99.90
52415;DHT22;38340;52.964;6.086;2023-04-01T18:02:13;7.30;99.90
52415;DHT22;38340;52.964;6.086;2023-04-01T18:05:03;7.30;99.90
52415;DHT22;38340;52.964;6.086;2023-04-01T18:21:20;7.00;99.90
52415;DHT22;38340;52.964;6.086;2023-04-01T18:24:16;7.00;99.90
52415;DHT22;38340;52.964;6.086;2023-04-01T18:26:49;6.90;99.90
52415;DHT22;38340;52.964;6.086;2023-04-01T18:29:57;6.90;99.90
52415;DHT22;38340;52.964;6.086;2023-04-01T18:32:28;6.90;99.90
52415;DHT22;38340;52.964;6.086;2023-04-01T18:35:17;6.80;99.90
52415;DHT22;38340;52.964;6.086;2023-04-01T18:37:59;6.80;99.90
52415;DHT22;38340;52.964;6.086;2023-04-01T18:40:38;6.80;99.90
52415;DHT22;38340;52.964;6.086;2023-04-01T18:46:19;6.80;99.90
52415;DHT22;38340;52.964;6.086;2023-04-01T18:51:48;6.80;99.90
52415;DHT22;38340;52.964;6.086;2023-04-01T18:54:24;6.80;99.90
52415;DHT22;38340;52.964;6.086;2023-04-01T18:57:18;6.80;99.90
52415;DHT22;38340;52.964;6.086;2023-04-01T18:59:49;6.80;99.90
52415;DHT22;38340;52.964;6.086;2023-04-01T19:02:40;6.70;99.90
52415;DHT22;38340;52.964;6.086;2023-04-01T19:05:19;6.70;99.90
52415;DHT22;38340;52.964;6.086;2023-04-01T19:19:24;6.70;99.90
52415;DHT22;38340;52.964;6.086;2023-04-01T19:21:45;6.70;99.90
52415;DHT22;38340;52.964;6.086;2023-04-01T19:24:40;6.70;99.90
52415;DHT22;38340;52.964;6.086;2023-04-01T19:32:45;6.70;99.90
52415;DHT22;38340;52.964;6.086;2023-04-01T19:37:54;6.60;99.90
52415;DHT22;38340;52.964;6.086;2023-04-01T19:45:57;6.60;99.90
52415;DHT22;38340;52.964;6.086;2023-04-01T19:51:19;6.50;99.90
52415;DHT22;38340;52.964;6.086;2023-04-01T19:54:15;6.50;99.90
52415;DHT22;38340;52.964;6.086;2023-04-01T19:56:47;6.50;99.90
52415;DHT22;38340;52.964;6.086;2023-04-01T20:04:48;6.50;99.90
52415;DHT22;38340;52.964;6.086;2023-04-01T20:07:29;6.40;99.90
52415;DHT22;38340;52.964;6.086;2023-04-01T20:15:36;6.30;99.90
52415;DHT22;38340;52.964;6.086;2023-04-01T20:18:05;6.30;99.90
52415;DHT22;38340;52.964;6.086;2023-04-01T20:20:33;6.30;99.90
52415;DHT22;38340;52.964;6.086;2023-04-01T20:26:03;6.30;99.90
52415;DHT22;38340;52.964;6.086;2023-04-01T20:31:23;6.20;99.90
52415;DHT22;38340;52.964;6.086;2023-04-01T20:34:20;6.20;99.90
52415;DHT22;38340;52.964;6.086;2023-04-01T20:37:15;6.10;99.90
52415;DHT22;38340;52.964;6.086;2023-04-01T20:43:11;6.00;99.90
52415;DHT22;38340;52.964;6.086;2023-04-01T20:49:14;6.00;99.90
52415;DHT22;38340;52.964;6.086;2023-04-01T20:51:38;6.00;99.90
52415;DHT22;38340;52.964;6.086;2023-04-01T20:57:12;5.90;99.90
52415;DHT22;38340;52.964;6.086;2023-04-01T21:14:24;5.80;99.90
52415;DHT22;38340;52.964;6.086;2023-04-01T21:28:12;5.70;99.90
52415;DHT22;38340;52.964;6.086;2023-04-01T21:31:08;5.60;99.90
52415;DHT22;38340;52.964;6.086;2023-04-01T21:33:44;5.60;99.90
52415;DHT22;38340;52.964;6.086;2023-04-01T22:00:53;5.50;99.90
52415;DHT22;38340;52.964;6.086;2023-04-01T22:07:09;5.50;99.90
52415;DHT22;38340;52.964;6.086;2023-04-01T22:12:27;5.50;99.90
52415;DHT22;38340;52.964;6.086;2023-04-01T22:17:53;5.50;99.90
52415;DHT22;38340;52.964;6.086;2023-04-01T22:26:24;5.50;99.90
52415;DHT22;38340;52.964;6.086;2023-04-01T22:29:03;5.50;99.90
52415;DHT22;38340;52.964;6.086;2023-04-01T22:31:54;5.50;99.90
52415;DHT22;38340;52.964;6.086;2023-04-01T22:34:39;5.50;99.90
52415;DHT22;38340;52.964;6.086;2023-04-01T22:37:12;5.50;99.90
52415;DHT22;38340;52.964;6.086;2023-04-01T22:39:59;5.40;99.90
52415;DHT22;38340;52.964;6.086;2023-04-01T22:42:47;5.40;99.90
52415;DHT22;38340;52.964;6.086;2023-04-01T22:48:23;5.40;99.90
52415;DHT22;38340;52.964;6.086;2023-04-01T22:53:50;5.40;99.90
52415;DHT22;38340;52.964;6.086;2023-04-01T22:56:36;5.40;99.90
52415;DHT22;38340;52.964;6.086;2023-04-01T22:59:17;5.30;99.90
52415;DHT22;38340;52.964;6.086;2023-04-01T23:02:11;5.30;99.90
52415;DHT22;38340;52.964;6.086;2023-04-01T23:04:39;5.30;99.90
52415;DHT22;38340;52.964;6.086;2023-04-01T23:09:51;5.30;99.90
52415;DHT22;38340;52.964;6.086;2023-04-01T23:12:19;5.20;99.90
52415;DHT22;38340;52.964;6.086;2023-04-01T23:14:50;5.20;99.90
52415;DHT22;38340;52.964;6.086;2023-04-01T23:25:43;5.10;99.90
52415;DHT22;38340;52.964;6.086;2023-04-01T23:30:51;5.00;99.90
52415;DHT22;38340;52.964;6.086;2023-04-01T23:33:28;5.00;99.90
52415;DHT22;38340;52.964;6.086;2023-04-01T23:36:10;5.00;99.90
52415;DHT22;38340;52.964;6.086;2023-04-01T23:38:39;4.90;99.90
52415;DHT22;38340;52.964;6.086;2023-04-01T23:41:09;4.90;99.90
52415;DHT22;38340;52.964;6.086;2023-04-01T23:43:43;4.90;99.90
52415;DHT22;38340;52.964;6.086;2023-04-01T23:46:09;4.80;99.90
52415;DHT22;38340;52.964;6.086;2023-04-01T23:48:43;4.80;99.90
52415;DHT22;38340;52.964;6.086;2023-04-01T23:51:36;4.70;99.90
52415;DHT22;38340;52.964;6.086;2023-04-01T23:54:17;4.70;99.90
52415;DHT22;38340;52.964;6.086;2023-04-01T23:56:53;4.70;99.90
52415;DHT22;38340;52.964;6.086;2023-04-01T23:59:38;4.70;99.90
